createdAt,value
2022-12-08T00:00:54.771Z,88.03
2022-12-08T00:03:21.694Z,87.95
2022-12-08T00:06:07.956Z,88.06
2022-12-08T00:08:53.155Z,87.88
2022-12-08T00:11:20.353Z,87.72
2022-12-08T00:13:47.281Z,87.54
2022-12-08T00:16:13.829Z,87.10
2022-12-08T00:18:40.299Z,87.67
2022-12-08T00:21:07.027Z,87.48
2022-12-08T00:23:33.480Z,88.73
2022-12-08T00:26:06.995Z,88.86
2022-12-08T00:28:34.362Z,88.94
2022-12-08T00:31:07.476Z,90.91
2022-12-08T00:33:34.330Z,91.47
2022-12-08T00:36:09.946Z,91.26
2022-12-08T00:38:37.119Z,90.80
2022-12-08T00:41:07.426Z,89.92
2022-12-08T00:43:33.860Z,89.48
2022-12-08T00:46:00.351Z,89.13
2022-12-08T00:48:26.885Z,88.89
2022-12-08T00:50:53.341Z,88.57
2022-12-08T00:53:19.839Z,88.94
2022-12-08T00:55:46.373Z,88.70
2022-12-08T00:58:12.790Z,89.39
2022-12-08T01:00:43.024Z,90.20
2022-12-08T01:03:10.858Z,89.67
2022-12-08T01:05:37.417Z,88.91
2022-12-08T01:08:08.694Z,90.82
2022-12-08T01:10:36.626Z,91.87
2022-12-08T01:13:04.040Z,91.37
2022-12-08T01:15:30.514Z,90.70
2022-12-08T01:17:57.021Z,91.44
2022-12-08T01:20:23.584Z,90.68
2022-12-08T01:22:50.089Z,89.50
2022-12-08T01:25:16.649Z,91.11
2022-12-08T01:27:43.086Z,90.42
2022-12-08T01:30:10.195Z,91.05
2022-12-08T01:32:36.864Z,91.52
2022-12-08T01:35:03.380Z,92.49
2022-12-08T01:37:29.856Z,92.40
2022-12-08T01:39:56.244Z,91.92
2022-12-08T01:42:24.617Z,92.08
2022-12-08T01:45:03.402Z,92.55
2022-12-08T01:47:38.141Z,91.81
2022-12-08T01:50:08.231Z,91.47
2022-12-08T01:52:46.717Z,91.73
2022-12-08T01:55:28.897Z,91.72
2022-12-08T01:58:26.929Z,91.49
2022-12-08T02:00:54.001Z,91.80
2022-12-08T02:03:28.263Z,91.39
2022-12-08T02:05:54.900Z,90.75
2022-12-08T02:08:21.973Z,90.37
2022-12-08T02:10:51.045Z,89.58
2022-12-08T02:13:19.116Z,89.91
2022-12-08T02:16:05.191Z,89.76
2022-12-08T02:18:41.430Z,91.34
2022-12-08T02:21:35.669Z,91.01
2022-12-08T02:24:04.920Z,91.12
2022-12-08T02:26:59.338Z,90.41
2022-12-08T02:29:40.912Z,89.93
2022-12-08T02:32:07.390Z,89.80
2022-12-08T02:35:12.330Z,89.83
2022-12-08T02:37:45.833Z,89.49
2022-12-08T02:40:33.342Z,89.39
2022-12-08T02:43:07.132Z,88.94
2022-12-08T02:45:44.147Z,89.28
2022-12-08T02:48:10.926Z,90.19
2022-12-08T02:50:37.422Z,89.14
2022-12-08T02:55:46.415Z,89.71
2022-12-08T02:58:24.136Z,91.76
2022-12-08T03:00:50.497Z,92.10
2022-12-08T03:03:32.920Z,91.76
2022-12-08T03:06:16.605Z,91.88
2022-12-08T03:09:00.185Z,91.21
2022-12-08T03:11:34.841Z,91.87
2022-12-08T03:14:03.508Z,92.10
2022-12-08T03:16:31.942Z,91.31
2022-12-08T03:19:19.826Z,91.12
2022-12-08T03:21:53.184Z,91.27
2022-12-08T03:24:23.114Z,90.15
2022-12-08T03:26:58.391Z,90.33
2022-12-08T03:29:25.206Z,90.34
2022-12-08T03:31:59.051Z,90.78
2022-12-08T03:34:28.713Z,90.87
2022-12-08T03:36:55.791Z,90.40
2022-12-08T03:39:23.035Z,90.09
2022-12-08T03:41:49.512Z,89.44
2022-12-08T03:44:16.091Z,89.43
2022-12-08T03:46:42.513Z,89.91
2022-12-08T03:49:09.022Z,89.78
2022-12-08T03:51:35.411Z,89.40
2022-12-08T03:54:01.873Z,90.56
2022-12-08T03:56:32.485Z,90.01
2022-12-08T03:58:59.234Z,88.73
2022-12-08T04:01:26.185Z,88.94
2022-12-08T04:03:52.837Z,88.80
2022-12-08T04:06:20.400Z,89.00
2022-12-08T04:08:47.276Z,89.04
2022-12-08T04:11:13.771Z,89.12
2022-12-08T04:13:41.734Z,89.30
2022-12-08T04:16:08.925Z,89.67
2022-12-08T04:18:36.195Z,89.44
2022-12-08T04:21:02.819Z,89.15
2022-12-08T04:23:29.274Z,89.31
2022-12-08T04:25:55.746Z,89.80
2022-12-08T04:28:22.396Z,89.80
2022-12-08T04:30:49.765Z,90.43
2022-12-08T04:33:16.971Z,90.17
2022-12-08T04:35:43.608Z,90.03
2022-12-08T04:38:09.992Z,90.41
2022-12-08T04:40:36.592Z,90.63
2022-12-08T04:43:03.151Z,90.17
2022-12-08T04:45:29.582Z,89.69
2022-12-08T04:47:56.058Z,90.53
2022-12-08T04:50:22.497Z,90.32
2022-12-08T04:52:48.944Z,89.70
2022-12-08T04:55:15.513Z,90.06
2022-12-08T04:57:41.912Z,90.19
2022-12-08T05:00:09.028Z,89.67
2022-12-08T05:02:35.810Z,89.29
2022-12-08T05:05:02.451Z,88.97
2022-12-08T05:07:28.944Z,89.34
2022-12-08T05:09:55.452Z,89.85
2022-12-08T05:12:22.208Z,90.29
2022-12-08T05:14:48.891Z,90.25
2022-12-08T05:17:16.833Z,89.82
2022-12-08T05:19:43.252Z,89.69
2022-12-08T05:22:10.065Z,89.65
2022-12-08T05:24:36.865Z,89.44
2022-12-08T05:27:03.511Z,88.87
2022-12-08T05:29:29.999Z,88.81
2022-12-08T05:31:56.419Z,88.56
2022-12-08T05:34:22.923Z,88.33
2022-12-08T05:36:49.349Z,87.95
2022-12-08T05:39:15.857Z,88.35
2022-12-08T05:41:42.398Z,88.55
2022-12-08T05:44:09.231Z,87.80
2022-12-08T05:46:36.763Z,88.46
2022-12-08T05:49:03.581Z,88.53
2022-12-08T05:51:30.320Z,88.37
2022-12-08T05:53:57.384Z,87.92
2022-12-08T05:56:24.015Z,87.90
2022-12-08T05:58:50.825Z,87.70
2022-12-08T06:01:19.626Z,87.63
2022-12-08T06:03:46.101Z,87.93
2022-12-08T06:06:12.567Z,87.96
2022-12-08T06:08:39.120Z,87.65
2022-12-08T06:11:05.568Z,87.07
2022-12-08T06:13:32.109Z,88.71
2022-12-08T06:16:04.749Z,88.07
2022-12-08T06:18:32.986Z,88.13
2022-12-08T06:21:07.430Z,88.16
2022-12-08T06:23:34.231Z,87.26
2022-12-08T06:26:09.476Z,88.11
2022-12-08T06:28:36.432Z,87.47
2022-12-08T06:31:13.122Z,88.35
2022-12-08T06:33:39.585Z,88.66
2022-12-08T06:36:07.207Z,88.50
2022-12-08T06:38:35.663Z,89.16
2022-12-08T06:41:05.817Z,89.03
2022-12-08T06:43:33.193Z,87.98
2022-12-08T06:46:00.771Z,88.29
2022-12-08T06:48:27.344Z,88.05
2022-12-08T06:50:53.760Z,87.78
2022-12-08T06:53:20.299Z,88.56
2022-12-08T06:56:00.788Z,88.04
2022-12-08T06:58:27.211Z,88.16
2022-12-08T07:00:53.885Z,87.82
2022-12-08T07:03:20.640Z,87.51
2022-12-08T07:05:47.263Z,87.30
2022-12-08T07:08:14.367Z,87.22
2022-12-08T07:10:40.905Z,87.48
2022-12-08T07:13:07.367Z,87.20
2022-12-08T07:15:33.880Z,87.21
2022-12-08T07:18:00.788Z,86.96
2022-12-08T07:20:27.752Z,87.34
2022-12-08T07:22:54.371Z,88.18
2022-12-08T07:25:21.185Z,87.43
2022-12-08T07:27:48.081Z,88.76
2022-12-08T07:30:15.007Z,87.88
2022-12-08T07:32:41.651Z,88.15
2022-12-08T07:35:08.856Z,88.02
2022-12-08T07:37:36.200Z,88.19
2022-12-08T07:40:04.924Z,88.16
2022-12-08T07:42:31.601Z,87.49
2022-12-08T07:44:58.054Z,88.54
2022-12-08T07:47:24.506Z,88.12
2022-12-08T07:49:50.992Z,89.23
2022-12-08T07:52:17.563Z,88.59
2022-12-08T07:54:44.065Z,88.44
2022-12-08T07:57:10.694Z,86.88
2022-12-08T07:59:37.392Z,88.15
2022-12-08T08:02:22.769Z,87.87
2022-12-08T08:04:51.415Z,86.83
2022-12-08T08:07:18.169Z,88.09
2022-12-08T08:09:45.797Z,88.19
2022-12-08T08:15:03.600Z,88.77
2022-12-08T08:17:30.366Z,87.61
2022-12-08T08:19:57.504Z,87.40
2022-12-08T08:22:25.573Z,87.17
2022-12-08T08:24:52.598Z,87.13
2022-12-08T08:27:19.167Z,86.69
2022-12-08T08:29:45.687Z,87.84
2022-12-08T08:32:12.419Z,88.27
2022-12-08T08:34:39.093Z,87.41
2022-12-08T08:37:05.680Z,88.28
2022-12-08T08:39:32.582Z,88.54
2022-12-08T08:41:59.251Z,88.76
2022-12-08T08:44:25.925Z,87.66
2022-12-08T08:46:52.419Z,87.99
2022-12-08T08:49:19.206Z,88.36
2022-12-08T08:51:46.078Z,89.05
2022-12-08T08:54:12.598Z,88.00
2022-12-08T08:56:39.258Z,88.45
2022-12-08T08:59:05.749Z,88.51
2022-12-08T09:01:32.802Z,86.76
2022-12-08T09:03:59.391Z,86.79
2022-12-08T09:06:26.165Z,86.75
2022-12-08T09:08:52.784Z,85.56
2022-12-08T09:11:19.599Z,85.14
2022-12-08T09:13:50.952Z,85.42
2022-12-08T09:16:18.450Z,84.31
2022-12-08T09:18:45.043Z,85.83
2022-12-08T09:21:16.558Z,85.57
2022-12-08T09:23:43.819Z,85.23
2022-12-08T09:26:10.473Z,85.23
2022-12-08T09:28:37.846Z,84.01
2022-12-08T09:31:04.718Z,83.37
2022-12-08T09:33:31.698Z,82.64
2022-12-08T09:36:02.610Z,84.23
2022-12-08T09:38:29.181Z,82.41
2022-12-08T09:40:55.868Z,83.59
2022-12-08T09:43:43.246Z,82.13
2022-12-08T09:46:13.407Z,82.18
2022-12-08T09:48:45.446Z,80.71
2022-12-08T09:51:14.766Z,79.92
2022-12-08T09:53:54.906Z,80.72
2022-12-08T09:56:22.785Z,81.89
2022-12-08T09:59:12.014Z,82.26
2022-12-08T10:01:41.961Z,80.85
2022-12-08T10:04:32.525Z,80.62
2022-12-08T10:07:23.549Z,81.32
2022-12-08T10:09:59.386Z,81.71
2022-12-08T10:12:49.706Z,82.89
2022-12-08T10:15:45.939Z,82.01
2022-12-08T10:18:19.187Z,82.76
2022-12-08T10:20:48.658Z,81.76
2022-12-08T10:23:29.950Z,81.93
2022-12-08T10:26:17.813Z,82.75
2022-12-08T10:28:45.607Z,81.90
2022-12-08T10:31:21.460Z,81.25
2022-12-08T10:33:55.186Z,80.22
2022-12-08T10:36:21.787Z,79.89
2022-12-08T10:38:48.490Z,81.13
2022-12-08T10:41:18.100Z,78.65
2022-12-08T10:43:48.901Z,79.03
2022-12-08T10:46:25.834Z,77.29
2022-12-08T10:48:54.772Z,78.35
2022-12-08T10:51:28.927Z,78.52
2022-12-08T10:53:56.681Z,78.65
2022-12-08T10:56:29.621Z,81.15
2022-12-08T10:59:18.765Z,78.45
2022-12-08T11:01:48.566Z,78.86
2022-12-08T11:04:36.464Z,78.55
2022-12-08T11:07:06.336Z,79.03
2022-12-08T11:09:42.010Z,79.51
2022-12-08T11:12:16.618Z,76.55
2022-12-08T11:14:43.064Z,78.24
2022-12-08T11:17:14.729Z,76.62
2022-12-08T11:19:43.784Z,76.91
2022-12-08T11:22:32.305Z,76.25
2022-12-08T11:25:07.708Z,78.87
2022-12-08T11:27:36.616Z,77.62
2022-12-08T11:30:14.564Z,78.91
2022-12-08T11:32:46.502Z,78.13
2022-12-08T11:35:30.782Z,77.62
2022-12-08T11:38:21.722Z,77.52
2022-12-08T11:40:52.236Z,77.22
2022-12-08T11:43:33.725Z,77.12
2022-12-08T11:46:03.763Z,76.79
2022-12-08T11:48:36.864Z,77.94
2022-12-08T11:51:24.395Z,79.58
2022-12-08T11:53:59.578Z,78.27
2022-12-08T11:56:33.674Z,79.34
2022-12-08T11:59:13.927Z,79.74
2022-12-08T12:01:42.676Z,80.50
2022-12-08T12:04:19.275Z,80.66
2022-12-08T12:07:26.389Z,81.48
2022-12-08T12:10:02.328Z,81.27
2022-12-08T12:12:39.624Z,81.57
2022-12-08T12:15:31.255Z,81.31
2022-12-08T12:18:20.259Z,79.57
2022-12-08T12:20:57.463Z,80.53
2022-12-08T12:23:44.917Z,81.33
2022-12-08T12:26:26.354Z,80.74
2022-12-08T12:28:57.921Z,79.41
2022-12-08T12:31:35.363Z,80.25
2022-12-08T12:34:15.516Z,78.89
2022-12-08T12:36:53.341Z,77.55
2022-12-08T12:39:29.964Z,78.15
2022-12-08T12:42:01.707Z,76.43
2022-12-08T12:44:28.157Z,76.66
2022-12-08T12:46:57.596Z,75.57
2022-12-08T12:49:50.542Z,76.19
2022-12-08T12:52:17.047Z,77.79
2022-12-08T12:55:04.671Z,78.86
2022-12-08T12:57:37.812Z,81.25
2022-12-08T13:00:04.517Z,80.69
2022-12-08T13:02:31.081Z,80.33
2022-12-08T13:05:02.408Z,82.00
2022-12-08T13:07:33.291Z,84.22
2022-12-08T13:10:16.462Z,84.11
2022-12-08T13:12:45.321Z,85.31
2022-12-08T13:15:20.152Z,85.86
2022-12-08T13:17:48.768Z,85.52
2022-12-08T13:20:22.598Z,85.98
2022-12-08T13:23:13.139Z,87.51
2022-12-08T13:25:39.717Z,86.24
2022-12-08T13:28:25.648Z,86.43
2022-12-08T13:30:58.294Z,88.26
2022-12-08T13:33:37.975Z,86.90
2022-12-08T13:36:09.691Z,85.88
2022-12-08T13:38:38.663Z,85.01
2022-12-08T13:41:14.222Z,85.05
2022-12-08T13:45:18.170Z,83.37
2022-12-08T13:59:09.157Z,80.71
2022-12-08T14:01:44.829Z,79.80
2022-12-08T14:07:04.226Z,79.37
2022-12-08T14:09:36.735Z,80.46
2022-12-08T14:12:19.913Z,81.12
2022-12-08T14:15:05.458Z,80.81
2022-12-08T14:17:32.990Z,80.38
2022-12-08T14:20:14.097Z,82.27
2022-12-08T14:22:41.628Z,81.70
2022-12-08T14:25:18.779Z,81.92
2022-12-08T14:27:45.870Z,82.47
2022-12-08T14:30:13.476Z,82.27
2022-12-08T14:32:47.084Z,82.67
2022-12-08T14:35:32.133Z,83.13
2022-12-08T14:38:04.120Z,82.67
2022-12-08T14:40:43.310Z,82.76
2022-12-08T14:43:09.716Z,81.63
2022-12-08T14:45:38.911Z,81.31
2022-12-08T14:48:20.773Z,80.24
2022-12-08T14:51:18.019Z,79.57
2022-12-08T14:53:47.936Z,80.25
2022-12-08T14:56:24.658Z,81.48
2022-12-08T14:59:22.997Z,80.91
2022-12-08T15:01:53.026Z,80.67
2022-12-08T15:04:25.612Z,80.42
2022-12-08T15:06:59.797Z,80.27
2022-12-08T15:09:35.236Z,80.74
2022-12-08T15:12:02.490Z,82.08
2022-12-08T15:14:37.916Z,80.93
2022-12-08T15:17:31.451Z,80.56
2022-12-08T15:19:59.847Z,82.15
2022-12-08T15:22:29.184Z,82.73
2022-12-08T15:24:56.498Z,83.19
2022-12-08T15:27:25.236Z,83.14
2022-12-08T15:29:51.962Z,84.86
2022-12-08T15:32:23.804Z,84.84
2022-12-08T15:34:50.579Z,84.61
2022-12-08T15:37:29.092Z,85.15
2022-12-08T15:39:55.648Z,85.66
2022-12-08T15:42:22.102Z,84.95
2022-12-08T15:44:48.638Z,84.80
2022-12-08T15:47:20.558Z,84.68
2022-12-08T15:49:49.461Z,83.25
2022-12-08T15:52:22.033Z,83.38
2022-12-08T15:54:49.257Z,82.86
2022-12-08T16:04:09.360Z,82.62
2022-12-08T16:09:38.220Z,82.88
2022-12-08T16:12:25.482Z,83.58
2022-12-08T16:17:39.672Z,84.06
2022-12-08T16:20:13.207Z,83.68
2022-12-08T16:23:07.582Z,82.95
2022-12-08T16:25:27.402Z,82.85
2022-12-08T16:28:08.434Z,83.95
2022-12-08T16:30:44.068Z,84.22
2022-12-08T16:33:12.390Z,83.63
2022-12-08T16:35:39.135Z,83.23
2022-12-08T16:38:05.598Z,82.84
2022-12-08T16:40:32.306Z,83.17
2022-12-08T16:42:58.768Z,83.78
2022-12-08T16:45:29.780Z,85.50
2022-12-08T16:47:58.823Z,86.12
2022-12-08T16:50:34.397Z,84.35
2022-12-08T16:53:04.019Z,82.95
2022-12-08T16:55:30.635Z,83.45
2022-12-08T16:57:57.576Z,83.29
2022-12-08T17:00:26.787Z,82.46
2022-12-08T17:02:54.113Z,82.79
2022-12-08T17:05:22.669Z,82.27
2022-12-08T17:07:51.452Z,82.48
2022-12-08T17:10:23.519Z,82.38
2022-12-08T17:12:50.447Z,82.73
2022-12-08T17:15:21.043Z,82.48
2022-12-08T17:17:47.614Z,82.90
2022-12-08T17:20:16.714Z,82.97
2022-12-08T17:22:43.750Z,82.69
2022-12-08T17:25:11.107Z,83.18
2022-12-08T17:27:38.720Z,83.45
2022-12-08T17:30:06.913Z,84.16
2022-12-08T17:32:33.808Z,84.36
2022-12-08T17:35:00.499Z,84.18
2022-12-08T17:37:26.937Z,84.20
2022-12-08T17:39:53.399Z,84.73
2022-12-08T17:42:19.864Z,84.26
2022-12-08T17:44:46.656Z,84.89
2022-12-08T17:47:13.132Z,84.81
2022-12-08T17:49:39.696Z,85.43
2022-12-08T17:52:06.889Z,86.19
2022-12-08T17:54:33.889Z,86.34
2022-12-08T17:57:00.430Z,85.84
2022-12-08T17:59:28.653Z,85.65
2022-12-08T18:01:56.383Z,85.25
2022-12-08T18:04:23.745Z,84.54
2022-12-08T18:06:50.613Z,84.76
2022-12-08T18:09:17.576Z,85.40
2022-12-08T18:11:46.113Z,84.52
2022-12-08T18:14:14.292Z,84.12
2022-12-08T18:16:44.221Z,84.48
2022-12-08T18:19:12.155Z,84.70
2022-12-08T18:21:39.306Z,84.02
2022-12-08T18:24:06.311Z,85.61
2022-12-08T18:26:33.277Z,85.67
2022-12-08T18:29:00.538Z,85.33
2022-12-08T18:31:27.585Z,85.78
2022-12-08T18:33:54.240Z,85.80
2022-12-08T18:36:23.641Z,85.77
2022-12-08T18:38:50.474Z,86.47
2022-12-08T18:41:20.537Z,86.45
2022-12-08T18:43:47.122Z,85.70
2022-12-08T18:46:14.899Z,86.12
2022-12-08T18:48:44.289Z,85.51
2022-12-08T18:51:18.766Z,85.81
2022-12-08T18:53:46.399Z,86.63
2022-12-08T18:56:32.333Z,86.94
2022-12-08T18:59:03.901Z,87.20
2022-12-08T19:01:32.735Z,87.71
2022-12-08T19:06:47.275Z,87.88
2022-12-08T19:09:14.190Z,87.75
2022-12-08T19:11:41.017Z,88.25
2022-12-08T19:14:08.077Z,87.85
2022-12-08T19:16:36.069Z,87.71
2022-12-08T19:19:04.443Z,88.04
2022-12-08T19:21:31.496Z,87.87
2022-12-08T19:23:58.591Z,87.63
2022-12-08T19:26:26.704Z,87.57
2022-12-08T19:28:53.222Z,87.43
2022-12-08T19:31:19.772Z,87.75
2022-12-08T19:33:46.413Z,87.90
2022-12-08T19:36:16.548Z,88.08
2022-12-08T19:39:01.619Z,88.29
2022-12-08T19:42:06.768Z,88.27
2022-12-08T19:44:52.481Z,89.02
2022-12-08T19:47:24.500Z,88.95
2022-12-08T19:49:54.757Z,88.70
2022-12-08T19:52:21.486Z,88.74
2022-12-08T19:54:48.144Z,89.24
2022-12-08T19:57:14.662Z,88.75
2022-12-08T19:59:41.226Z,89.46
2022-12-08T20:02:07.744Z,88.95
2022-12-08T20:04:34.913Z,88.54
2022-12-08T20:07:01.562Z,88.55
2022-12-08T20:09:28.063Z,88.57
2022-12-08T20:11:55.135Z,88.74
2022-12-08T20:14:23.219Z,89.04
2022-12-08T20:16:50.425Z,89.73
2022-12-08T20:19:17.155Z,89.99
2022-12-08T20:21:43.704Z,89.81
2022-12-08T20:24:10.236Z,89.65
2022-12-08T20:26:36.790Z,89.65
2022-12-08T20:29:03.414Z,89.95
2022-12-08T20:31:31.215Z,89.87
2022-12-08T20:33:57.978Z,89.83
2022-12-08T20:36:25.353Z,90.07
2022-12-08T20:38:53.055Z,90.22
2022-12-08T20:41:20.418Z,90.27
2022-12-08T20:43:48.000Z,90.01
2022-12-08T20:46:17.416Z,89.42
2022-12-08T20:48:44.620Z,89.20
2022-12-08T20:51:19.668Z,89.35
2022-12-08T20:53:47.087Z,89.60
2022-12-08T20:56:16.228Z,90.18
2022-12-08T20:58:42.985Z,92.76
2022-12-08T21:01:12.034Z,92.15
2022-12-08T21:03:39.059Z,91.18
2022-12-08T21:06:06.556Z,90.50
2022-12-08T21:08:33.508Z,90.29
2022-12-08T21:11:01.090Z,89.40
2022-12-08T21:13:27.932Z,89.54
2022-12-08T21:15:54.628Z,89.62
2022-12-08T21:18:21.207Z,89.49
2022-12-08T21:20:48.350Z,89.32
2022-12-08T21:23:16.208Z,89.65
2022-12-08T21:25:45.538Z,90.26
2022-12-08T21:28:12.100Z,90.38
2022-12-08T21:30:40.192Z,89.53
2022-12-08T21:33:06.846Z,88.82
2022-12-08T21:35:33.461Z,88.31
2022-12-08T21:38:00.237Z,88.55
2022-12-08T21:40:27.017Z,88.16
2022-12-08T21:42:53.761Z,88.44
2022-12-08T21:45:21.343Z,87.58
2022-12-08T21:47:49.306Z,88.27
2022-12-08T21:50:17.251Z,88.68
2022-12-08T21:52:45.742Z,88.44
2022-12-08T21:55:13.583Z,88.60
2022-12-08T21:57:40.597Z,88.46
2022-12-08T22:00:09.499Z,88.14
2022-12-08T22:02:36.332Z,88.10
2022-12-08T22:05:02.889Z,88.06
2022-12-08T22:07:29.338Z,87.97
2022-12-08T22:09:55.850Z,88.86
2022-12-08T22:12:22.610Z,90.79
2022-12-08T22:14:50.993Z,90.01
2022-12-08T22:17:18.675Z,89.92
2022-12-08T22:19:45.679Z,89.94
2022-12-08T22:22:12.130Z,89.38
2022-12-08T22:24:38.664Z,89.30
2022-12-08T22:27:05.553Z,88.89
2022-12-08T22:29:32.056Z,89.44
2022-12-08T22:31:58.464Z,89.59
2022-12-08T22:34:24.936Z,89.73
2022-12-08T22:36:51.478Z,89.70
2022-12-08T22:39:17.905Z,90.09
2022-12-08T22:41:44.483Z,90.12
2022-12-08T22:44:13.999Z,89.23
2022-12-08T22:46:40.573Z,89.28
2022-12-08T22:49:07.139Z,89.12
2022-12-08T22:51:36.449Z,89.07
2022-12-08T22:54:02.977Z,89.21
2022-12-08T22:56:29.616Z,89.47
2022-12-08T22:58:56.158Z,89.94
2022-12-08T23:01:29.069Z,90.20
2022-12-08T23:03:56.132Z,90.31
2022-12-08T23:06:23.520Z,90.09
2022-12-08T23:08:50.359Z,89.97
2022-12-08T23:11:17.130Z,89.48
2022-12-08T23:13:44.102Z,89.81
2022-12-08T23:16:11.804Z,89.36
2022-12-08T23:18:41.746Z,89.49
2022-12-08T23:21:11.574Z,89.72
2022-12-08T23:23:38.602Z,90.12
2022-12-08T23:26:12.183Z,90.39
2022-12-08T23:28:38.808Z,90.58
2022-12-08T23:31:08.868Z,90.61
2022-12-08T23:33:35.337Z,90.96
2022-12-08T23:36:02.643Z,91.21
2022-12-08T23:38:29.283Z,91.00
2022-12-08T23:41:00.741Z,91.45
2022-12-08T23:43:27.266Z,91.53
2022-12-08T23:45:55.121Z,91.24
2022-12-08T23:48:21.889Z,91.35
2022-12-08T23:50:48.428Z,90.83
2022-12-08T23:53:15.705Z,90.91
2022-12-08T23:55:42.552Z,91.03
2022-12-08T23:58:09.115Z,91.04
